sensor_id;sensor_type;location;lat;lon;timestamp;pressure;altitude;pressure_sealevel;temperature;humidity
68197;BME280;55019;49.382;11.358;2023-07-31T00:00:29;96665.00;;;14.75;100.00
68197;BME280;55019;49.382;11.358;2023-07-31T00:02:55;96662.25;;;14.55;100.00
68197;BME280;55019;49.382;11.358;2023-07-31T00:05:21;96662.72;;;14.44;100.00
68197;BME280;55019;49.382;11.358;2023-07-31T00:07:47;96657.38;;;14.52;100.00
68197;BME280;55019;49.382;11.358;2023-07-31T00:10:13;96662.53;;;14.46;100.00
68197;BME280;55019;49.382;11.358;2023-07-31T00:12:40;96651.81;;;14.35;100.00
68197;BME280;55019;49.382;11.358;2023-07-31T00:15:07;96653.00;;;14.32;100.00
68197;BME280;55019;49.382;11.358;2023-07-31T00:17:32;96649.47;;;14.40;100.00
68197;BME280;55019;49.382;11.358;2023-07-31T00:19:58;96652.81;;;14.34;100.00
68197;BME280;55019;49.382;11.358;2023-07-31T00:22:24;96652.28;;;14.09;100.00
68197;BME280;55019;49.382;11.358;2023-07-31T00:24:49;96640.56;;;13.99;100.00
68197;BME280;55019;49.382;11.358;2023-07-31T00:27:15;96641.91;;;14.09;100.00
68197;BME280;55019;49.382;11.358;2023-07-31T00:29:41;96647.47;;;13.92;100.00
68197;BME280;55019;49.382;11.358;2023-07-31T00:32:07;96650.53;;;13.95;100.00
68197;BME280;55019;49.382;11.358;2023-07-31T00:34:33;96644.00;;;13.70;100.00
68197;BME280;55019;49.382;11.358;2023-07-31T00:36:58;96645.41;;;14.02;100.00
68197;BME280;55019;49.382;11.358;2023-07-31T00:39:24;96642.44;;;14.19;100.00
68197;BME280;55019;49.382;11.358;2023-07-31T00:41:50;96641.47;;;14.06;100.00
68197;BME280;55019;49.382;11.358;2023-07-31T00:44:16;96639.31;;;13.95;100.00
68197;BME280;55019;49.382;11.358;2023-07-31T00:46:42;96634.50;;;13.92;100.00
68197;BME280;55019;49.382;11.358;2023-07-31T00:49:08;96633.97;;;13.82;100.00
68197;BME280;55019;49.382;11.358;2023-07-31T00:51:34;96633.63;;;13.85;100.00
68197;BME280;55019;49.382;11.358;2023-07-31T00:54:00;96632.94;;;13.62;100.00
68197;BME280;55019;49.382;11.358;2023-07-31T00:56:27;96637.31;;;13.76;100.00
68197;BME280;55019;49.382;11.358;2023-07-31T00:58:55;96628.38;;;13.78;100.00
68197;BME280;55019;49.382;11.358;2023-07-31T01:01:20;96631.75;;;13.79;100.00
68197;BME280;55019;49.382;11.358;2023-07-31T01:03:47;96628.38;;;13.64;100.00
68197;BME280;55019;49.382;11.358;2023-07-31T01:08:58;96636.56;;;13.82;100.00
68197;BME280;55019;49.382;11.358;2023-07-31T01:11:37;96636.16;;;13.64;100.00
68197;BME280;55019;49.382;11.358;2023-07-31T01:14:04;96637.03;;;13.71;100.00
68197;BME280;55019;49.382;11.358;2023-07-31T01:16:30;96625.41;;;13.67;100.00
68197;BME280;55019;49.382;11.358;2023-07-31T01:18:56;96632.38;;;13.52;100.00
68197;BME280;55019;49.382;11.358;2023-07-31T01:22:33;96626.03;;;13.54;100.00
68197;BME280;55019;49.382;11.358;2023-07-31T01:27:12;96624.97;;;13.34;100.00
68197;BME280;55019;49.382;11.358;2023-07-31T01:29:49;96627.56;;;13.49;100.00
68197;BME280;55019;49.382;11.358;2023-07-31T01:32:22;96614.88;;;13.54;100.00
68197;BME280;55019;49.382;11.358;2023-07-31T01:34:48;96616.06;;;13.72;100.00
68197;BME280;55019;49.382;11.358;2023-07-31T01:37:14;96613.47;;;13.72;100.00
68197;BME280;55019;49.382;11.358;2023-07-31T01:39:40;96614.56;;;13.63;100.00
68197;BME280;55019;49.382;11.358;2023-07-31T01:42:06;96615.03;;;13.38;100.00
68197;BME280;55019;49.382;11.358;2023-07-31T01:44:33;96618.25;;;13.40;100.00
68197;BME280;55019;49.382;11.358;2023-07-31T01:46:58;96626.13;;;13.32;100.00
68197;BME280;55019;49.382;11.358;2023-07-31T01:49:26;96617.97;;;13.35;100.00
68197;BME280;55019;49.382;11.358;2023-07-31T01:51:51;96619.13;;;13.47;100.00
68197;BME280;55019;49.382;11.358;2023-07-31T01:54:17;96619.75;;;13.49;100.00
68197;BME280;55019;49.382;11.358;2023-07-31T01:56:43;96613.31;;;13.59;100.00
68197;BME280;55019;49.382;11.358;2023-07-31T01:59:08;96603.56;;;13.76;100.00
68197;BME280;55019;49.382;11.358;2023-07-31T02:01:34;96595.34;;;13.58;100.00
68197;BME280;55019;49.382;11.358;2023-07-31T02:04:00;96601.47;;;13.71;100.00
68197;BME280;55019;49.382;11.358;2023-07-31T02:06:25;96610.72;;;13.74;100.00
68197;BME280;55019;49.382;11.358;2023-07-31T02:08:51;96596.50;;;13.70;100.00
68197;BME280;55019;49.382;11.358;2023-07-31T02:11:17;96600.13;;;13.90;100.00
68197;BME280;55019;49.382;11.358;2023-07-31T02:13:43;96596.84;;;14.17;100.00
68197;BME280;55019;49.382;11.358;2023-07-31T02:16:09;96594.69;;;14.20;100.00
68197;BME280;55019;49.382;11.358;2023-07-31T02:18:34;96596.13;;;14.23;100.00
68197;BME280;55019;49.382;11.358;2023-07-31T02:21:01;96586.47;;;14.17;100.00
68197;BME280;55019;49.382;11.358;2023-07-31T02:23:27;96591.47;;;14.18;100.00
68197;BME280;55019;49.382;11.358;2023-07-31T02:25:52;96579.41;;;13.96;100.00
68197;BME280;55019;49.382;11.358;2023-07-31T02:28:18;96580.66;;;14.00;100.00
68197;BME280;55019;49.382;11.358;2023-07-31T02:30:45;96579.03;;;13.99;100.00
68197;BME280;55019;49.382;11.358;2023-07-31T02:33:14;96574.56;;;14.08;100.00
68197;BME280;55019;49.382;11.358;2023-07-31T02:35:40;96573.97;;;14.27;100.00
68197;BME280;55019;49.382;11.358;2023-07-31T02:38:05;96571.47;;;14.40;100.00
68197;BME280;55019;49.382;11.358;2023-07-31T02:40:31;96563.31;;;14.43;100.00
68197;BME280;55019;49.382;11.358;2023-07-31T02:42:57;96568.66;;;14.55;100.00
68197;BME280;55019;49.382;11.358;2023-07-31T02:45:23;96569.50;;;14.42;100.00
68197;BME280;55019;49.382;11.358;2023-07-31T02:47:49;96569.88;;;14.39;100.00
68197;BME280;55019;49.382;11.358;2023-07-31T02:50:15;96573.34;;;13.89;100.00
68197;BME280;55019;49.382;11.358;2023-07-31T02:52:40;96566.91;;;13.85;100.00
68197;BME280;55019;49.382;11.358;2023-07-31T02:55:06;96581.16;;;13.75;100.00
68197;BME280;55019;49.382;11.358;2023-07-31T02:57:34;96569.91;;;13.68;100.00
68197;BME280;55019;49.382;11.358;2023-07-31T03:00:00;96568.91;;;13.69;100.00
68197;BME280;55019;49.382;11.358;2023-07-31T03:02:26;96571.66;;;13.82;100.00
68197;BME280;55019;49.382;11.358;2023-07-31T03:04:52;96570.31;;;13.86;100.00
68197;BME280;55019;49.382;11.358;2023-07-31T03:07:17;96568.81;;;13.77;100.00
68197;BME280;55019;49.382;11.358;2023-07-31T03:09:43;96573.25;;;13.83;100.00
68197;BME280;55019;49.382;11.358;2023-07-31T03:12:09;96575.00;;;13.97;100.00
68197;BME280;55019;49.382;11.358;2023-07-31T03:14:35;96584.47;;;14.19;100.00
68197;BME280;55019;49.382;11.358;2023-07-31T03:17:01;96571.22;;;14.14;100.00
68197;BME280;55019;49.382;11.358;2023-07-31T03:19:27;96573.72;;;14.22;100.00
68197;BME280;55019;49.382;11.358;2023-07-31T03:21:55;96576.06;;;14.38;100.00
68197;BME280;55019;49.382;11.358;2023-07-31T03:24:21;96566.47;;;14.17;100.00
68197;BME280;55019;49.382;11.358;2023-07-31T03:26:46;96570.63;;;14.33;100.00
68197;BME280;55019;49.382;11.358;2023-07-31T03:29:12;96567.88;;;14.41;100.00
68197;BME280;55019;49.382;11.358;2023-07-31T03:31:38;96571.00;;;14.30;100.00
68197;BME280;55019;49.382;11.358;2023-07-31T03:34:04;96561.94;;;14.46;100.00
68197;BME280;55019;49.382;11.358;2023-07-31T03:36:30;96562.75;;;14.47;100.00
68197;BME280;55019;49.382;11.358;2023-07-31T03:38:55;96566.03;;;14.55;100.00
68197;BME280;55019;49.382;11.358;2023-07-31T03:41:21;96556.88;;;14.59;100.00
68197;BME280;55019;49.382;11.358;2023-07-31T03:43:49;96556.88;;;14.59;100.00
68197;BME280;55019;49.382;11.358;2023-07-31T03:46:18;96557.34;;;14.69;100.00
68197;BME280;55019;49.382;11.358;2023-07-31T03:48:44;96554.44;;;14.58;100.00
68197;BME280;55019;49.382;11.358;2023-07-31T03:51:09;96558.19;;;14.76;100.00
68197;BME280;55019;49.382;11.358;2023-07-31T03:53:35;96557.66;;;14.87;100.00
68197;BME280;55019;49.382;11.358;2023-07-31T03:56:00;96557.53;;;14.95;100.00
68197;BME280;55019;49.382;11.358;2023-07-31T03:58:26;96553.06;;;14.83;100.00
68197;BME280;55019;49.382;11.358;2023-07-31T04:00:52;96558.63;;;14.80;100.00
68197;BME280;55019;49.382;11.358;2023-07-31T04:03:17;96545.09;;;14.91;100.00
68197;BME280;55019;49.382;11.358;2023-07-31T04:05:43;96555.38;;;14.71;100.00
68197;BME280;55019;49.382;11.358;2023-07-31T04:08:09;96549.72;;;14.68;100.00
68197;BME280;55019;49.382;11.358;2023-07-31T04:10:35;96561.09;;;14.40;100.00
68197;BME280;55019;49.382;11.358;2023-07-31T04:13:01;96565.78;;;14.30;100.00
68197;BME280;55019;49.382;11.358;2023-07-31T04:15:26;96559.47;;;14.39;100.00
68197;BME280;55019;49.382;11.358;2023-07-31T04:17:52;96556.88;;;14.39;100.00
68197;BME280;55019;49.382;11.358;2023-07-31T04:20:18;96554.16;;;14.46;100.00
68197;BME280;55019;49.382;11.358;2023-07-31T04:22:44;96556.44;;;14.56;100.00
68197;BME280;55019;49.382;11.358;2023-07-31T04:25:09;96552.00;;;14.50;100.00
68197;BME280;55019;49.382;11.358;2023-07-31T04:27:35;96548.31;;;14.65;100.00
68197;BME280;55019;49.382;11.358;2023-07-31T04:30:01;96557.06;;;14.58;100.00
68197;BME280;55019;49.382;11.358;2023-07-31T04:32:27;96552.94;;;14.70;100.00
68197;BME280;55019;49.382;11.358;2023-07-31T04:34:52;96560.50;;;14.92;100.00
68197;BME280;55019;49.382;11.358;2023-07-31T04:37:18;96558.94;;;14.98;100.00
68197;BME280;55019;49.382;11.358;2023-07-31T04:39:44;96548.88;;;14.88;100.00
68197;BME280;55019;49.382;11.358;2023-07-31T04:42:10;96552.16;;;14.69;100.00
68197;BME280;55019;49.382;11.358;2023-07-31T04:44:35;96549.44;;;14.56;100.00
68197;BME280;55019;49.382;11.358;2023-07-31T04:47:01;96553.66;;;14.57;100.00
68197;BME280;55019;49.382;11.358;2023-07-31T04:49:27;96552.78;;;14.50;100.00
68197;BME280;55019;49.382;11.358;2023-07-31T04:51:53;96557.19;;;14.50;100.00
68197;BME280;55019;49.382;11.358;2023-07-31T04:54:19;96556.72;;;14.67;100.00
68197;BME280;55019;49.382;11.358;2023-07-31T04:56:45;96545.84;;;14.57;100.00
68197;BME280;55019;49.382;11.358;2023-07-31T04:59:10;96552.28;;;14.61;100.00
68197;BME280;55019;49.382;11.358;2023-07-31T05:01:36;96553.53;;;14.65;100.00
68197;BME280;55019;49.382;11.358;2023-07-31T05:04:02;96551.78;;;14.72;100.00
68197;BME280;55019;49.382;11.358;2023-07-31T05:06:27;96545.97;;;14.70;100.00
68197;BME280;55019;49.382;11.358;2023-07-31T05:08:53;96545.56;;;14.73;100.00
68197;BME280;55019;49.382;11.358;2023-07-31T05:11:19;96539.16;;;14.69;100.00
68197;BME280;55019;49.382;11.358;2023-07-31T05:13:45;96532.63;;;14.80;100.00
68197;BME280;55019;49.382;11.358;2023-07-31T05:16:10;96532.97;;;14.77;100.00
68197;BME280;55019;49.382;11.358;2023-07-31T05:18:36;96534.25;;;14.87;100.00
68197;BME280;55019;49.382;11.358;2023-07-31T05:21:02;96534.34;;;15.00;100.00
68197;BME280;55019;49.382;11.358;2023-07-31T05:23:27;96537.25;;;15.18;100.00
68197;BME280;55019;49.382;11.358;2023-07-31T05:25:53;96539.28;;;15.23;100.00
68197;BME280;55019;49.382;11.358;2023-07-31T05:28:21;96531.28;;;15.24;100.00
68197;BME280;55019;49.382;11.358;2023-07-31T05:30:47;96526.09;;;15.24;100.00
68197;BME280;55019;49.382;11.358;2023-07-31T05:33:13;96532.97;;;15.32;100.00
68197;BME280;55019;49.382;11.358;2023-07-31T05:35:38;96536.50;;;15.24;100.00
68197;BME280;55019;49.382;11.358;2023-07-31T05:38:04;96521.25;;;15.21;100.00
68197;BME280;55019;49.382;11.358;2023-07-31T05:40:32;96532.38;;;15.36;100.00
68197;BME280;55019;49.382;11.358;2023-07-31T05:42:58;96535.38;;;15.33;100.00
68197;BME280;55019;49.382;11.358;2023-07-31T05:45:25;96531.75;;;15.34;100.00
68197;BME280;55019;49.382;11.358;2023-07-31T05:47:51;96533.75;;;15.32;100.00
68197;BME280;55019;49.382;11.358;2023-07-31T05:50:16;96532.97;;;15.32;100.00
68197;BME280;55019;49.382;11.358;2023-07-31T05:52:42;96522.97;;;15.35;100.00
68197;BME280;55019;49.382;11.358;2023-07-31T05:55:08;96528.59;;;15.45;100.00
68197;BME280;55019;49.382;11.358;2023-07-31T05:57:34;96516.34;;;15.33;100.00
68197;BME280;55019;49.382;11.358;2023-07-31T05:59:59;96528.22;;;15.48;100.00
68197;BME280;55019;49.382;11.358;2023-07-31T06:02:25;96535.72;;;15.64;100.00
68197;BME280;55019;49.382;11.358;2023-07-31T06:04:51;96538.13;;;15.72;100.00
68197;BME280;55019;49.382;11.358;2023-07-31T06:07:17;96530.75;;;15.82;100.00
68197;BME280;55019;49.382;11.358;2023-07-31T06:09:42;96527.75;;;15.85;100.00
68197;BME280;55019;49.382;11.358;2023-07-31T06:12:08;96533.19;;;15.90;100.00
68197;BME280;55019;49.382;11.358;2023-07-31T06:14:34;96531.41;;;16.03;100.00
68197;BME280;55019;49.382;11.358;2023-07-31T06:17:00;96525.78;;;16.00;100.00
68197;BME280;55019;49.382;11.358;2023-07-31T06:19:26;96524.03;;;16.20;99.30
68197;BME280;55019;49.382;11.358;2023-07-31T06:21:52;96511.19;;;16.31;97.12
68197;BME280;55019;49.382;11.358;2023-07-31T06:24:17;96520.88;;;16.50;96.96
68197;BME280;55019;49.382;11.358;2023-07-31T06:26:45;96516.88;;;16.61;97.41
68197;BME280;55019;49.382;11.358;2023-07-31T06:29:11;96511.81;;;16.53;93.95
68197;BME280;55019;49.382;11.358;2023-07-31T06:31:37;96509.22;;;16.79;95.00
68197;BME280;55019;49.382;11.358;2023-07-31T06:34:03;96514.03;;;16.62;94.51
68197;BME280;55019;49.382;11.358;2023-07-31T06:36:28;96517.25;;;16.71;93.82
68197;BME280;55019;49.382;11.358;2023-07-31T06:38:54;96520.03;;;16.82;95.90
68197;BME280;55019;49.382;11.358;2023-07-31T06:41:20;96523.66;;;16.88;91.32
68197;BME280;55019;49.382;11.358;2023-07-31T06:43:46;96525.66;;;16.86;93.33
68197;BME280;55019;49.382;11.358;2023-07-31T06:46:12;96526.84;;;16.90;92.90
68197;BME280;55019;49.382;11.358;2023-07-31T06:48:37;96525.44;;;16.94;91.78
68197;BME280;55019;49.382;11.358;2023-07-31T06:51:03;96523.44;;;17.02;91.05
68197;BME280;55019;49.382;11.358;2023-07-31T06:53:29;96520.78;;;17.09;90.73
68197;BME280;55019;49.382;11.358;2023-07-31T06:55:55;96520.19;;;17.20;90.35
68197;BME280;55019;49.382;11.358;2023-07-31T06:58:20;96525.22;;;17.15;90.95
68197;BME280;55019;49.382;11.358;2023-07-31T07:00:46;96515.53;;;17.35;91.04
68197;BME280;55019;49.382;11.358;2023-07-31T07:03:14;96525.97;;;17.41;89.51
68197;BME280;55019;49.382;11.358;2023-07-31T07:05:40;96524.75;;;17.43;89.78
68197;BME280;55019;49.382;11.358;2023-07-31T07:08:06;96523.91;;;17.56;90.76
68197;BME280;55019;49.382;11.358;2023-07-31T07:10:31;96513.81;;;17.59;88.62
68197;BME280;55019;49.382;11.358;2023-07-31T07:12:57;96523.91;;;17.56;86.04
68197;BME280;55019;49.382;11.358;2023-07-31T07:15:23;96519.28;;;17.58;88.40
68197;BME280;55019;49.382;11.358;2023-07-31T07:17:48;96529.88;;;17.69;89.33
68197;BME280;55019;49.382;11.358;2023-07-31T07:20:14;96528.53;;;17.98;88.39
68197;BME280;55019;49.382;11.358;2023-07-31T07:22:40;96528.31;;;18.37;83.85
68197;BME280;55019;49.382;11.358;2023-07-31T07:25:08;96527.97;;;18.27;81.89
68197;BME280;55019;49.382;11.358;2023-07-31T07:27:34;96533.66;;;18.17;81.63
68197;BME280;55019;49.382;11.358;2023-07-31T07:30:00;96520.81;;;18.09;84.24
68197;BME280;55019;49.382;11.358;2023-07-31T07:32:26;96520.03;;;18.09;82.20
68197;BME280;55019;49.382;11.358;2023-07-31T07:34:52;96522.41;;;18.10;83.56
68197;BME280;55019;49.382;11.358;2023-07-31T07:37:18;96515.19;;;18.12;82.36
68197;BME280;55019;49.382;11.358;2023-07-31T07:39:44;96514.75;;;18.15;83.95
68197;BME280;55019;49.382;11.358;2023-07-31T07:42:09;96519.13;;;18.28;80.61
68197;BME280;55019;49.382;11.358;2023-07-31T07:44:35;96529.53;;;18.65;80.52
68197;BME280;55019;49.382;11.358;2023-07-31T07:47:01;96520.84;;;18.89;79.44
68197;BME280;55019;49.382;11.358;2023-07-31T07:49:27;96525.47;;;18.69;76.41
68197;BME280;55019;49.382;11.358;2023-07-31T07:51:52;96521.47;;;18.85;77.29
68197;BME280;55019;49.382;11.358;2023-07-31T07:54:18;96528.50;;;18.66;76.08
68197;BME280;55019;49.382;11.358;2023-07-31T07:56:44;96527.38;;;18.56;77.64
68197;BME280;55019;49.382;11.358;2023-07-31T07:59:10;96526.03;;;18.47;77.01
68197;BME280;55019;49.382;11.358;2023-07-31T08:01:35;96531.38;;;18.58;76.42
68197;BME280;55019;49.382;11.358;2023-07-31T08:04:01;96515.16;;;18.92;75.72
68197;BME280;55019;49.382;11.358;2023-07-31T08:06:27;96511.97;;;19.08;75.06
68197;BME280;55019;49.382;11.358;2023-07-31T08:08:53;96512.53;;;19.34;80.56
68197;BME280;55019;49.382;11.358;2023-07-31T08:11:19;96519.59;;;19.52;72.74
68197;BME280;55019;49.382;11.358;2023-07-31T08:13:44;96514.13;;;19.35;71.24
68197;BME280;55019;49.382;11.358;2023-07-31T08:16:10;96511.75;;;19.34;75.06
68197;BME280;55019;49.382;11.358;2023-07-31T08:18:36;96516.84;;;19.65;77.87
68197;BME280;55019;49.382;11.358;2023-07-31T08:21:02;96511.19;;;19.32;71.41
68197;BME280;55019;49.382;11.358;2023-07-31T08:23:28;96518.53;;;19.41;72.58
68197;BME280;55019;49.382;11.358;2023-07-31T08:25:54;96526.22;;;19.72;74.53
68197;BME280;55019;49.382;11.358;2023-07-31T08:28:20;96515.47;;;19.92;71.13
68197;BME280;55019;49.382;11.358;2023-07-31T08:30:46;96512.94;;;20.15;69.21
68197;BME280;55019;49.382;11.358;2023-07-31T08:33:11;96508.59;;;20.49;64.66
68197;BME280;55019;49.382;11.358;2023-07-31T08:35:37;96505.56;;;20.23;68.46
68197;BME280;55019;49.382;11.358;2023-07-31T08:38:03;96496.88;;;20.52;65.63
68197;BME280;55019;49.382;11.358;2023-07-31T08:40:29;96495.34;;;20.44;64.43
68197;BME280;55019;49.382;11.358;2023-07-31T08:42:55;96493.16;;;20.19;66.30
68197;BME280;55019;49.382;11.358;2023-07-31T08:45:22;96488.44;;;20.73;67.04
68197;BME280;55019;49.382;11.358;2023-07-31T08:47:50;96497.31;;;20.72;63.79
68197;BME280;55019;49.382;11.358;2023-07-31T08:50:18;96488.56;;;21.12;61.89
68197;BME280;55019;49.382;11.358;2023-07-31T08:52:47;96475.91;;;20.98;61.31
68197;BME280;55019;49.382;11.358;2023-07-31T08:55:13;96480.91;;;20.88;61.71
68197;BME280;55019;49.382;11.358;2023-07-31T08:57:39;96470.41;;;21.22;62.93
68197;BME280;55019;49.382;11.358;2023-07-31T09:00:08;96470.16;;;21.24;60.16
68197;BME280;55019;49.382;11.358;2023-07-31T09:02:38;96459.06;;;21.33;59.18
68197;BME280;55019;49.382;11.358;2023-07-31T09:05:07;96465.16;;;21.22;61.83
68197;BME280;55019;49.382;11.358;2023-07-31T09:07:36;96459.84;;;21.34;61.59
68197;BME280;55019;49.382;11.358;2023-07-31T09:10:04;96465.25;;;21.04;60.45
68197;BME280;55019;49.382;11.358;2023-07-31T09:12:30;96466.88;;;21.05;62.81
68197;BME280;55019;49.382;11.358;2023-07-31T09:14:57;96467.22;;;20.86;63.79
68197;BME280;55019;49.382;11.358;2023-07-31T09:17:30;96465.94;;;20.54;63.65
68197;BME280;55019;49.382;11.358;2023-07-31T09:20:18;96459.72;;;21.40;64.34
68197;BME280;55019;49.382;11.358;2023-07-31T09:22:45;96469.38;;;21.74;60.14
68197;BME280;55019;49.382;11.358;2023-07-31T09:30:14;96465.28;;;22.39;56.54
68197;BME280;55019;49.382;11.358;2023-07-31T09:32:40;96457.13;;;22.24;57.06
68197;BME280;55019;49.382;11.358;2023-07-31T09:35:19;96449.00;;;22.42;58.72
68197;BME280;55019;49.382;11.358;2023-07-31T09:37:50;96443.81;;;22.63;55.38
68197;BME280;55019;49.382;11.358;2023-07-31T09:43:02;96436.59;;;22.92;53.86
68197;BME280;55019;49.382;11.358;2023-07-31T09:45:29;96443.56;;;22.81;53.58
68197;BME280;55019;49.382;11.358;2023-07-31T09:47:56;96436.88;;;22.74;52.68
68197;BME280;55019;49.382;11.358;2023-07-31T09:50:23;96436.69;;;22.80;50.72
68197;BME280;55019;49.382;11.358;2023-07-31T09:52:50;96438.88;;;23.05;51.64
68197;BME280;55019;49.382;11.358;2023-07-31T09:55:16;96427.69;;;22.76;53.00
68197;BME280;55019;49.382;11.358;2023-07-31T09:57:45;96437.72;;;23.34;52.33
68197;BME280;55019;49.382;11.358;2023-07-31T10:00:12;96421.63;;;23.14;50.15
68197;BME280;55019;49.382;11.358;2023-07-31T10:02:39;96427.13;;;22.25;52.72
68197;BME280;55019;49.382;11.358;2023-07-31T10:05:07;96420.88;;;21.98;54.06
68197;BME280;55019;49.382;11.358;2023-07-31T10:07:43;96415.00;;;22.24;54.53
68197;BME280;55019;49.382;11.358;2023-07-31T10:10:11;96411.63;;;22.12;53.36
68197;BME280;55019;49.382;11.358;2023-07-31T10:12:37;96397.34;;;21.75;56.86
68197;BME280;55019;49.382;11.358;2023-07-31T10:15:04;96406.00;;;21.76;57.11
68197;BME280;55019;49.382;11.358;2023-07-31T10:17:31;96401.13;;;21.56;57.27
68197;BME280;55019;49.382;11.358;2023-07-31T10:20:01;96409.31;;;21.99;56.06
68197;BME280;55019;49.382;11.358;2023-07-31T10:22:30;96413.03;;;21.70;54.96
68197;BME280;55019;49.382;11.358;2023-07-31T10:24:58;96412.97;;;21.98;53.68
68197;BME280;55019;49.382;11.358;2023-07-31T10:27:24;96413.41;;;21.51;54.62
68197;BME280;55019;49.382;11.358;2023-07-31T10:29:52;96400.09;;;21.69;56.93
68197;BME280;55019;49.382;11.358;2023-07-31T10:32:19;96398.88;;;21.48;55.40
68197;BME280;55019;49.382;11.358;2023-07-31T10:34:46;96399.19;;;21.35;58.24
68197;BME280;55019;49.382;11.358;2023-07-31T10:39:58;96404.63;;;21.45;59.46
68197;BME280;55019;49.382;11.358;2023-07-31T10:42:33;96399.72;;;21.49;57.76
68197;BME280;55019;49.382;11.358;2023-07-31T10:45:02;96391.50;;;21.73;59.36
68197;BME280;55019;49.382;11.358;2023-07-31T10:47:29;96384.53;;;22.44;57.04
68197;BME280;55019;49.382;11.358;2023-07-31T10:50:19;96377.72;;;23.46;56.94
68197;BME280;55019;49.382;11.358;2023-07-31T10:52:54;96377.53;;;23.78;50.85
68197;BME280;55019;49.382;11.358;2023-07-31T10:58:09;96368.94;;;22.38;54.81
68197;BME280;55019;49.382;11.358;2023-07-31T11:00:38;96366.84;;;22.56;53.87
68197;BME280;55019;49.382;11.358;2023-07-31T11:03:08;96363.78;;;23.24;49.16
68197;BME280;55019;49.382;11.358;2023-07-31T11:05:51;96364.22;;;22.78;50.83
68197;BME280;55019;49.382;11.358;2023-07-31T11:08:27;96368.16;;;22.59;52.11
68197;BME280;55019;49.382;11.358;2023-07-31T11:13:31;96361.00;;;21.89;54.77
68197;BME280;55019;49.382;11.358;2023-07-31T11:15:57;96351.84;;;21.91;55.22
68197;BME280;55019;49.382;11.358;2023-07-31T11:18:24;96357.41;;;22.11;56.43
68197;BME280;55019;49.382;11.358;2023-07-31T11:20:49;96347.84;;;22.05;57.59
68197;BME280;55019;49.382;11.358;2023-07-31T11:23:17;96352.00;;;22.34;57.74
68197;BME280;55019;49.382;11.358;2023-07-31T11:25:43;96349.66;;;22.92;58.56
68197;BME280;55019;49.382;11.358;2023-07-31T11:28:10;96351.41;;;23.08;55.79
68197;BME280;55019;49.382;11.358;2023-07-31T11:30:37;96348.22;;;23.75;54.51
68197;BME280;55019;49.382;11.358;2023-07-31T11:33:05;96335.72;;;23.65;52.41
68197;BME280;55019;49.382;11.358;2023-07-31T11:35:32;96341.63;;;22.82;52.99
68197;BME280;55019;49.382;11.358;2023-07-31T11:38:02;96338.13;;;22.98;52.61
68197;BME280;55019;49.382;11.358;2023-07-31T11:40:28;96336.53;;;22.97;53.18
68197;BME280;55019;49.382;11.358;2023-07-31T11:42:55;96340.50;;;22.07;53.10
68197;BME280;55019;49.382;11.358;2023-07-31T11:45:25;96338.81;;;21.85;53.96
68197;BME280;55019;49.382;11.358;2023-07-31T11:47:51;96345.09;;;21.67;56.33
68197;BME280;55019;49.382;11.358;2023-07-31T11:50:17;96348.22;;;21.64;56.75
68197;BME280;55019;49.382;11.358;2023-07-31T11:52:44;96335.56;;;21.78;63.25
68197;BME280;55019;49.382;11.358;2023-07-31T11:55:12;96343.22;;;21.79;57.13
68197;BME280;55019;49.382;11.358;2023-07-31T11:57:39;96337.66;;;21.92;60.43
68197;BME280;55019;49.382;11.358;2023-07-31T12:00:07;96333.16;;;22.25;56.88
68197;BME280;55019;49.382;11.358;2023-07-31T12:02:34;96319.78;;;21.94;57.15
68197;BME280;55019;49.382;11.358;2023-07-31T12:05:00;96329.19;;;21.90;57.60
68197;BME280;55019;49.382;11.358;2023-07-31T12:07:25;96332.38;;;22.41;59.42
68197;BME280;55019;49.382;11.358;2023-07-31T12:09:54;96322.22;;;22.88;58.27
68197;BME280;55019;49.382;11.358;2023-07-31T12:12:25;96324.25;;;23.50;57.91
68197;BME280;55019;49.382;11.358;2023-07-31T12:14:50;96332.84;;;23.67;54.50
68197;BME280;55019;49.382;11.358;2023-07-31T12:17:17;96329.28;;;23.09;55.47
68197;BME280;55019;49.382;11.358;2023-07-31T12:19:46;96330.78;;;22.40;55.53
68197;BME280;55019;49.382;11.358;2023-07-31T12:22:14;96328.72;;;22.26;58.38
68197;BME280;55019;49.382;11.358;2023-07-31T12:24:42;96328.72;;;21.93;56.18
68197;BME280;55019;49.382;11.358;2023-07-31T12:27:14;96327.28;;;21.69;61.24
68197;BME280;55019;49.382;11.358;2023-07-31T12:29:42;96326.66;;;21.95;60.00
68197;BME280;55019;49.382;11.358;2023-07-31T12:32:23;96327.53;;;21.56;58.02
68197;BME280;55019;49.382;11.358;2023-07-31T12:34:51;96307.25;;;21.68;57.69
68197;BME280;55019;49.382;11.358;2023-07-31T12:37:17;96305.94;;;21.98;58.32
68197;BME280;55019;49.382;11.358;2023-07-31T12:39:43;96305.03;;;22.26;56.96
68197;BME280;55019;49.382;11.358;2023-07-31T12:42:08;96300.56;;;22.10;55.81
68197;BME280;55019;49.382;11.358;2023-07-31T12:44:34;96289.78;;;22.28;57.51
68197;BME280;55019;49.382;11.358;2023-07-31T12:47:00;96292.78;;;22.96;55.92
68197;BME280;55019;49.382;11.358;2023-07-31T12:49:26;96275.84;;;23.35;52.86
68197;BME280;55019;49.382;11.358;2023-07-31T12:51:52;96274.31;;;23.12;51.43
68197;BME280;55019;49.382;11.358;2023-07-31T12:54:19;96280.59;;;22.90;52.56
68197;BME280;55019;49.382;11.358;2023-07-31T12:56:45;96278.97;;;22.84;52.97
68197;BME280;55019;49.382;11.358;2023-07-31T12:59:10;96271.66;;;23.39;53.67
68197;BME280;55019;49.382;11.358;2023-07-31T13:01:36;96259.97;;;23.56;50.88
68197;BME280;55019;49.382;11.358;2023-07-31T13:04:02;96260.50;;;23.58;55.39